sensor_id;sensor_type;location;lat;lon;timestamp;P1;durP1;ratioP1;P2;durP2;ratioP2
64029;SDS011;50277;52.064;4.492;2022-10-29T00:02:18;17.52;;;4.03;;
64029;SDS011;50277;52.064;4.492;2022-10-29T00:04:43;19.05;;;4.72;;
64029;SDS011;50277;52.064;4.492;2022-10-29T00:07:08;33.10;;;5.28;;
64029;SDS011;50277;52.064;4.492;2022-10-29T00:09:34;21.38;;;4.65;;
64029;SDS011;50277;52.064;4.492;2022-10-29T00:11:59;25.10;;;5.20;;
64029;SDS011;50277;52.064;4.492;2022-10-29T00:14:25;22.65;;;4.28;;
64029;SDS011;50277;52.064;4.492;2022-10-29T00:16:50;21.30;;;4.05;;
64029;SDS011;50277;52.064;4.492;2022-10-29T00:19:15;15.98;;;3.83;;
64029;SDS011;50277;52.064;4.492;2022-10-29T00:21:41;24.45;;;4.43;;
64029;SDS011;50277;52.064;4.492;2022-10-29T00:24:08;27.30;;;5.20;;
64029;SDS011;50277;52.064;4.492;2022-10-29T00:26:34;24.27;;;4.30;;
64029;SDS011;50277;52.064;4.492;2022-10-29T00:28:59;19.85;;;4.40;;
64029;SDS011;50277;52.064;4.492;2022-10-29T00:31:24;18.65;;;4.15;;
64029;SDS011;50277;52.064;4.492;2022-10-29T00:33:51;24.50;;;5.90;;
64029;SDS011;50277;52.064;4.492;2022-10-29T00:36:18;22.15;;;4.63;;
64029;SDS011;50277;52.064;4.492;2022-10-29T00:38:46;20.45;;;4.85;;
64029;SDS011;50277;52.064;4.492;2022-10-29T00:41:13;17.33;;;5.43;;
64029;SDS011;50277;52.064;4.492;2022-10-29T00:43:40;16.23;;;3.92;;
64029;SDS011;50277;52.064;4.492;2022-10-29T00:46:10;24.23;;;5.25;;
64029;SDS011;50277;52.064;4.492;2022-10-29T00:48:42;16.20;;;4.55;;
64029;SDS011;50277;52.064;4.492;2022-10-29T00:51:08;20.90;;;4.82;;
64029;SDS011;50277;52.064;4.492;2022-10-29T00:53:36;22.48;;;5.38;;
64029;SDS011;50277;52.064;4.492;2022-10-29T00:56:04;23.38;;;5.55;;
64029;SDS011;50277;52.064;4.492;2022-10-29T00:58:30;21.33;;;4.65;;
64029;SDS011;50277;52.064;4.492;2022-10-29T01:00:56;22.48;;;5.50;;
64029;SDS011;50277;52.064;4.492;2022-10-29T01:03:21;29.55;;;6.15;;
64029;SDS011;50277;52.064;4.492;2022-10-29T01:05:46;20.60;;;5.03;;
64029;SDS011;50277;52.064;4.492;2022-10-29T01:08:12;25.92;;;6.00;;
64029;SDS011;50277;52.064;4.492;2022-10-29T01:10:42;34.70;;;7.75;;
64029;SDS011;50277;52.064;4.492;2022-10-29T01:32:10;26.27;;;5.68;;
64029;SDS011;50277;52.064;4.492;2022-10-29T01:40:15;18.70;;;5.68;;
64029;SDS011;50277;52.064;4.492;2022-10-29T01:42:47;19.77;;;5.28;;
64029;SDS011;50277;52.064;4.492;2022-10-29T01:45:18;16.33;;;6.05;;
64029;SDS011;50277;52.064;4.492;2022-10-29T01:47:49;24.25;;;6.93;;
64029;SDS011;50277;52.064;4.492;2022-10-29T01:50:22;32.58;;;8.18;;
64029;SDS011;50277;52.064;4.492;2022-10-29T01:52:48;34.17;;;6.18;;
64029;SDS011;50277;52.064;4.492;2022-10-29T01:55:17;27.33;;;6.10;;
64029;SDS011;50277;52.064;4.492;2022-10-29T01:57:44;35.65;;;6.80;;
64029;SDS011;50277;52.064;4.492;2022-10-29T02:10:39;32.00;;;11.05;;
64029;SDS011;50277;52.064;4.492;2022-10-29T02:13:09;32.50;;;11.48;;
64029;SDS011;50277;52.064;4.492;2022-10-29T02:15:38;29.95;;;12.05;;
64029;SDS011;50277;52.064;4.492;2022-10-29T02:18:07;26.58;;;9.80;;
64029;SDS011;50277;52.064;4.492;2022-10-29T02:20:33;23.48;;;8.25;;
64029;SDS011;50277;52.064;4.492;2022-10-29T02:22:59;27.17;;;8.57;;
64029;SDS011;50277;52.064;4.492;2022-10-29T02:25:24;30.08;;;9.73;;
64029;SDS011;50277;52.064;4.492;2022-10-29T02:27:50;23.00;;;8.50;;
64029;SDS011;50277;52.064;4.492;2022-10-29T02:30:18;25.58;;;8.60;;
64029;SDS011;50277;52.064;4.492;2022-10-29T02:32:43;30.58;;;8.10;;
64029;SDS011;50277;52.064;4.492;2022-10-29T02:35:09;26.45;;;8.48;;
64029;SDS011;50277;52.064;4.492;2022-10-29T02:37:34;21.20;;;7.97;;
64029;SDS011;50277;52.064;4.492;2022-10-29T02:40:00;25.55;;;8.05;;
64029;SDS011;50277;52.064;4.492;2022-10-29T02:42:26;25.88;;;8.20;;
64029;SDS011;50277;52.064;4.492;2022-10-29T02:44:51;30.05;;;9.20;;
64029;SDS011;50277;52.064;4.492;2022-10-29T02:47:16;28.55;;;9.75;;
64029;SDS011;50277;52.064;4.492;2022-10-29T02:49:42;25.23;;;9.30;;
64029;SDS011;50277;52.064;4.492;2022-10-29T02:52:07;28.23;;;9.73;;
64029;SDS011;50277;52.064;4.492;2022-10-29T02:54:32;25.35;;;8.48;;
64029;SDS011;50277;52.064;4.492;2022-10-29T02:56:58;29.15;;;9.45;;
64029;SDS011;50277;52.064;4.492;2022-10-29T02:59:23;22.50;;;7.60;;
64029;SDS011;50277;52.064;4.492;2022-10-29T03:01:48;21.25;;;7.35;;
64029;SDS011;50277;52.064;4.492;2022-10-29T03:04:14;17.40;;;7.30;;
64029;SDS011;50277;52.064;4.492;2022-10-29T03:06:39;24.65;;;8.15;;
64029;SDS011;50277;52.064;4.492;2022-10-29T03:09:04;18.35;;;6.55;;
64029;SDS011;50277;52.064;4.492;2022-10-29T03:11:30;22.98;;;7.18;;
64029;SDS011;50277;52.064;4.492;2022-10-29T03:13:56;20.83;;;6.03;;
64029;SDS011;50277;52.064;4.492;2022-10-29T03:16:21;26.48;;;6.70;;
64029;SDS011;50277;52.064;4.492;2022-10-29T03:18:46;19.05;;;5.68;;
64029;SDS011;50277;52.064;4.492;2022-10-29T03:21:12;24.50;;;6.85;;
64029;SDS011;50277;52.064;4.492;2022-10-29T03:23:37;24.35;;;6.35;;
64029;SDS011;50277;52.064;4.492;2022-10-29T03:26:02;19.85;;;6.40;;
64029;SDS011;50277;52.064;4.492;2022-10-29T03:28:28;24.17;;;7.47;;
64029;SDS011;50277;52.064;4.492;2022-10-29T03:30:56;18.52;;;7.07;;
64029;SDS011;50277;52.064;4.492;2022-10-29T03:33:22;19.65;;;7.07;;
64029;SDS011;50277;52.064;4.492;2022-10-29T03:35:54;16.67;;;6.72;;
64029;SDS011;50277;52.064;4.492;2022-10-29T03:38:22;16.50;;;5.55;;
64029;SDS011;50277;52.064;4.492;2022-10-29T03:40:48;15.25;;;5.32;;
64029;SDS011;50277;52.064;4.492;2022-10-29T03:43:13;19.40;;;6.03;;
64029;SDS011;50277;52.064;4.492;2022-10-29T03:45:39;21.58;;;6.35;;
64029;SDS011;50277;52.064;4.492;2022-10-29T03:48:04;24.60;;;7.05;;
64029;SDS011;50277;52.064;4.492;2022-10-29T03:50:30;19.92;;;6.45;;
64029;SDS011;50277;52.064;4.492;2022-10-29T03:52:55;19.95;;;7.00;;
64029;SDS011;50277;52.064;4.492;2022-10-29T03:55:20;17.88;;;7.28;;
64029;SDS011;50277;52.064;4.492;2022-10-29T03:57:46;16.25;;;6.25;;
64029;SDS011;50277;52.064;4.492;2022-10-29T04:00:11;15.00;;;6.53;;
64029;SDS011;50277;52.064;4.492;2022-10-29T04:02:37;18.08;;;7.18;;
64029;SDS011;50277;52.064;4.492;2022-10-29T04:05:02;22.05;;;7.13;;
64029;SDS011;50277;52.064;4.492;2022-10-29T04:07:28;24.13;;;7.35;;
64029;SDS011;50277;52.064;4.492;2022-10-29T04:09:53;20.00;;;6.80;;
64029;SDS011;50277;52.064;4.492;2022-10-29T04:12:18;14.00;;;6.80;;
64029;SDS011;50277;52.064;4.492;2022-10-29T04:14:44;17.77;;;6.53;;
64029;SDS011;50277;52.064;4.492;2022-10-29T04:17:10;23.35;;;7.43;;
64029;SDS011;50277;52.064;4.492;2022-10-29T04:19:36;18.17;;;7.30;;
64029;SDS011;50277;52.064;4.492;2022-10-29T04:22:01;24.10;;;7.60;;
64029;SDS011;50277;52.064;4.492;2022-10-29T04:24:26;16.65;;;7.75;;
64029;SDS011;50277;52.064;4.492;2022-10-29T04:26:52;22.58;;;7.88;;
64029;SDS011;50277;52.064;4.492;2022-10-29T04:29:17;20.17;;;8.27;;
64029;SDS011;50277;52.064;4.492;2022-10-29T04:31:42;23.35;;;8.95;;
64029;SDS011;50277;52.064;4.492;2022-10-29T04:34:08;20.73;;;8.77;;
64029;SDS011;50277;52.064;4.492;2022-10-29T04:36:33;20.38;;;9.63;;
64029;SDS011;50277;52.064;4.492;2022-10-29T04:38:58;22.67;;;8.65;;
64029;SDS011;50277;52.064;4.492;2022-10-29T04:41:23;19.27;;;8.30;;
64029;SDS011;50277;52.064;4.492;2022-10-29T04:43:49;16.08;;;8.05;;
64029;SDS011;50277;52.064;4.492;2022-10-29T04:46:14;17.45;;;7.30;;
64029;SDS011;50277;52.064;4.492;2022-10-29T04:48:39;22.35;;;7.80;;
64029;SDS011;50277;52.064;4.492;2022-10-29T04:51:05;22.00;;;8.05;;
64029;SDS011;50277;52.064;4.492;2022-10-29T04:53:30;22.20;;;7.68;;
64029;SDS011;50277;52.064;4.492;2022-10-29T04:55:59;15.82;;;7.05;;
64029;SDS011;50277;52.064;4.492;2022-10-29T04:58:25;20.40;;;7.80;;
64029;SDS011;50277;52.064;4.492;2022-10-29T05:00:51;22.00;;;7.85;;
64029;SDS011;50277;52.064;4.492;2022-10-29T05:03:16;23.73;;;8.88;;
64029;SDS011;50277;52.064;4.492;2022-10-29T05:05:42;20.27;;;7.57;;
64029;SDS011;50277;52.064;4.492;2022-10-29T05:08:08;20.88;;;7.32;;
64029;SDS011;50277;52.064;4.492;2022-10-29T05:10:34;20.88;;;6.82;;
64029;SDS011;50277;52.064;4.492;2022-10-29T05:13:02;15.75;;;7.53;;
64029;SDS011;50277;52.064;4.492;2022-10-29T05:15:32;21.05;;;6.82;;
64029;SDS011;50277;52.064;4.492;2022-10-29T05:17:58;15.52;;;7.00;;
64029;SDS011;50277;52.064;4.492;2022-10-29T05:20:24;15.43;;;6.95;;
64029;SDS011;50277;52.064;4.492;2022-10-29T05:22:49;15.52;;;7.47;;
64029;SDS011;50277;52.064;4.492;2022-10-29T05:25:15;24.42;;;8.45;;
64029;SDS011;50277;52.064;4.492;2022-10-29T05:27:41;16.38;;;7.65;;
64029;SDS011;50277;52.064;4.492;2022-10-29T05:30:06;14.57;;;7.75;;
64029;SDS011;50277;52.064;4.492;2022-10-29T05:32:32;20.48;;;7.35;;
64029;SDS011;50277;52.064;4.492;2022-10-29T05:34:57;18.88;;;8.05;;
64029;SDS011;50277;52.064;4.492;2022-10-29T05:37:23;13.43;;;6.68;;
64029;SDS011;50277;52.064;4.492;2022-10-29T05:39:52;15.82;;;7.30;;
64029;SDS011;50277;52.064;4.492;2022-10-29T05:42:20;13.85;;;7.40;;
64029;SDS011;50277;52.064;4.492;2022-10-29T05:44:45;13.10;;;8.00;;
64029;SDS011;50277;52.064;4.492;2022-10-29T05:47:11;20.17;;;8.48;;
64029;SDS011;50277;52.064;4.492;2022-10-29T05:49:36;19.52;;;10.02;;
64029;SDS011;50277;52.064;4.492;2022-10-29T05:52:01;16.95;;;8.90;;
64029;SDS011;50277;52.064;4.492;2022-10-29T05:54:27;19.00;;;8.68;;
64029;SDS011;50277;52.064;4.492;2022-10-29T05:56:52;21.20;;;8.80;;
64029;SDS011;50277;52.064;4.492;2022-10-29T05:59:18;16.80;;;8.77;;
64029;SDS011;50277;52.064;4.492;2022-10-29T06:01:43;19.08;;;8.52;;
64029;SDS011;50277;52.064;4.492;2022-10-29T06:04:08;25.33;;;9.10;;
64029;SDS011;50277;52.064;4.492;2022-10-29T06:06:33;16.70;;;8.35;;
64029;SDS011;50277;52.064;4.492;2022-10-29T06:08:59;23.90;;;8.70;;
64029;SDS011;50277;52.064;4.492;2022-10-29T06:11:24;19.90;;;8.32;;
64029;SDS011;50277;52.064;4.492;2022-10-29T06:13:53;14.32;;;9.13;;
64029;SDS011;50277;52.064;4.492;2022-10-29T06:16:19;20.27;;;9.55;;
64029;SDS011;50277;52.064;4.492;2022-10-29T06:18:44;20.85;;;9.55;;
64029;SDS011;50277;52.064;4.492;2022-10-29T06:21:09;19.52;;;10.60;;
64029;SDS011;50277;52.064;4.492;2022-10-29T06:23:35;17.77;;;10.57;;
64029;SDS011;50277;52.064;4.492;2022-10-29T06:26:00;24.02;;;12.00;;
64029;SDS011;50277;52.064;4.492;2022-10-29T06:28:25;28.17;;;12.07;;
64029;SDS011;50277;52.064;4.492;2022-10-29T06:30:51;25.10;;;12.02;;
64029;SDS011;50277;52.064;4.492;2022-10-29T06:33:17;22.90;;;12.55;;
64029;SDS011;50277;52.064;4.492;2022-10-29T06:35:43;22.75;;;11.88;;
64029;SDS011;50277;52.064;4.492;2022-10-29T06:38:09;27.67;;;13.68;;
64029;SDS011;50277;52.064;4.492;2022-10-29T06:40:34;28.15;;;12.82;;
64029;SDS011;50277;52.064;4.492;2022-10-29T06:43:00;30.63;;;13.98;;
64029;SDS011;50277;52.064;4.492;2022-10-29T06:45:27;22.98;;;12.68;;
64029;SDS011;50277;52.064;4.492;2022-10-29T06:47:52;21.10;;;13.35;;
64029;SDS011;50277;52.064;4.492;2022-10-29T06:50:18;27.38;;;13.07;;
64029;SDS011;50277;52.064;4.492;2022-10-29T06:52:43;32.70;;;14.20;;
64029;SDS011;50277;52.064;4.492;2022-10-29T06:55:18;29.88;;;13.63;;
64029;SDS011;50277;52.064;4.492;2022-10-29T06:57:43;27.23;;;14.50;;
64029;SDS011;50277;52.064;4.492;2022-10-29T07:00:08;28.63;;;14.18;;
64029;SDS011;50277;52.064;4.492;2022-10-29T07:02:34;28.70;;;14.10;;
64029;SDS011;50277;52.064;4.492;2022-10-29T07:04:59;35.78;;;15.48;;
64029;SDS011;50277;52.064;4.492;2022-10-29T07:07:26;24.58;;;15.00;;
64029;SDS011;50277;52.064;4.492;2022-10-29T07:09:52;30.83;;;14.60;;
64029;SDS011;50277;52.064;4.492;2022-10-29T07:12:17;27.45;;;15.07;;
64029;SDS011;50277;52.064;4.492;2022-10-29T07:14:42;28.30;;;14.88;;
64029;SDS011;50277;52.064;4.492;2022-10-29T07:17:08;27.50;;;15.52;;
64029;SDS011;50277;52.064;4.492;2022-10-29T07:19:33;29.27;;;15.98;;
64029;SDS011;50277;52.064;4.492;2022-10-29T07:21:58;30.65;;;15.45;;
64029;SDS011;50277;52.064;4.492;2022-10-29T07:24:24;32.83;;;16.33;;
64029;SDS011;50277;52.064;4.492;2022-10-29T07:26:49;30.98;;;15.48;;
64029;SDS011;50277;52.064;4.492;2022-10-29T07:29:15;40.90;;;17.38;;
64029;SDS011;50277;52.064;4.492;2022-10-29T07:31:40;33.05;;;16.35;;
64029;SDS011;50277;52.064;4.492;2022-10-29T07:34:05;31.13;;;15.93;;
64029;SDS011;50277;52.064;4.492;2022-10-29T07:36:30;38.80;;;16.45;;
64029;SDS011;50277;52.064;4.492;2022-10-29T07:38:56;30.15;;;16.15;;
64029;SDS011;50277;52.064;4.492;2022-10-29T07:41:21;32.20;;;16.63;;
64029;SDS011;50277;52.064;4.492;2022-10-29T07:43:47;33.22;;;16.88;;
64029;SDS011;50277;52.064;4.492;2022-10-29T07:46:12;28.90;;;16.00;;
64029;SDS011;50277;52.064;4.492;2022-10-29T07:48:37;40.35;;;16.25;;
64029;SDS011;50277;52.064;4.492;2022-10-29T07:51:03;32.75;;;16.60;;
64029;SDS011;50277;52.064;4.492;2022-10-29T07:53:28;31.75;;;17.33;;
64029;SDS011;50277;52.064;4.492;2022-10-29T07:55:55;44.95;;;17.15;;
64029;SDS011;50277;52.064;4.492;2022-10-29T07:58:21;34.70;;;17.10;;
64029;SDS011;50277;52.064;4.492;2022-10-29T08:00:47;27.77;;;16.52;;
64029;SDS011;50277;52.064;4.492;2022-10-29T08:03:15;29.40;;;15.32;;
64029;SDS011;50277;52.064;4.492;2022-10-29T08:08:06;25.13;;;15.10;;
64029;SDS011;50277;52.064;4.492;2022-10-29T08:10:32;29.55;;;14.95;;
64029;SDS011;50277;52.064;4.492;2022-10-29T08:12:59;29.48;;;15.15;;
64029;SDS011;50277;52.064;4.492;2022-10-29T08:15:26;26.05;;;16.48;;
64029;SDS011;50277;52.064;4.492;2022-10-29T08:17:53;26.88;;;15.55;;
64029;SDS011;50277;52.064;4.492;2022-10-29T08:20:18;35.28;;;16.60;;
64029;SDS011;50277;52.064;4.492;2022-10-29T08:22:45;36.55;;;15.77;;
64029;SDS011;50277;52.064;4.492;2022-10-29T08:25:11;31.27;;;16.35;;
64029;SDS011;50277;52.064;4.492;2022-10-29T08:27:37;32.38;;;16.73;;
64029;SDS011;50277;52.064;4.492;2022-10-29T08:30:03;22.35;;;14.77;;
64029;SDS011;50277;52.064;4.492;2022-10-29T08:32:32;25.55;;;15.18;;
64029;SDS011;50277;52.064;4.492;2022-10-29T08:34:57;27.65;;;14.27;;
64029;SDS011;50277;52.064;4.492;2022-10-29T08:37:23;30.42;;;15.05;;
64029;SDS011;50277;52.064;4.492;2022-10-29T08:39:48;29.40;;;15.20;;
64029;SDS011;50277;52.064;4.492;2022-10-29T08:47:28;31.40;;;16.20;;
64029;SDS011;50277;52.064;4.492;2022-10-29T08:50:18;33.60;;;16.07;;
64029;SDS011;50277;52.064;4.492;2022-10-29T08:52:45;26.08;;;14.68;;
64029;SDS011;50277;52.064;4.492;2022-10-29T08:55:13;27.02;;;15.43;;
64029;SDS011;50277;52.064;4.492;2022-10-29T08:57:50;33.20;;;15.13;;
64029;SDS011;50277;52.064;4.492;2022-10-29T09:00:20;35.03;;;15.95;;
64029;SDS011;50277;52.064;4.492;2022-10-29T09:02:51;29.97;;;14.93;;
64029;SDS011;50277;52.064;4.492;2022-10-29T09:05:22;25.73;;;15.70;;
64029;SDS011;50277;52.064;4.492;2022-10-29T09:10:31;32.65;;;16.00;;
64029;SDS011;50277;52.064;4.492;2022-10-29T09:13:10;33.53;;;16.85;;
64029;SDS011;50277;52.064;4.492;2022-10-29T09:30:19;28.23;;;15.68;;
64029;SDS011;50277;52.064;4.492;2022-10-29T09:32:49;28.65;;;16.50;;
64029;SDS011;50277;52.064;4.492;2022-10-29T09:35:28;38.45;;;16.58;;
64029;SDS011;50277;52.064;4.492;2022-10-29T09:38:05;34.97;;;15.80;;
64029;SDS011;50277;52.064;4.492;2022-10-29T09:40:37;27.88;;;15.77;;
64029;SDS011;50277;52.064;4.492;2022-10-29T09:43:15;36.73;;;16.80;;
64029;SDS011;50277;52.064;4.492;2022-10-29T09:45:56;31.25;;;15.73;;
64029;SDS011;50277;52.064;4.492;2022-10-29T09:48:32;21.77;;;14.10;;
64029;SDS011;50277;52.064;4.492;2022-10-29T09:53:35;26.25;;;13.80;;
64029;SDS011;50277;52.064;4.492;2022-10-29T09:56:00;22.95;;;13.98;;
64029;SDS011;50277;52.064;4.492;2022-10-29T09:58:26;29.25;;;12.88;;
64029;SDS011;50277;52.064;4.492;2022-10-29T10:00:52;25.40;;;13.30;;
64029;SDS011;50277;52.064;4.492;2022-10-29T10:03:29;26.70;;;12.27;;
64029;SDS011;50277;52.064;4.492;2022-10-29T10:06:06;17.40;;;9.82;;
64029;SDS011;50277;52.064;4.492;2022-10-29T10:08:33;20.85;;;10.65;;
64029;SDS011;50277;52.064;4.492;2022-10-29T10:11:03;22.58;;;10.10;;
64029;SDS011;50277;52.064;4.492;2022-10-29T10:13:31;22.35;;;10.40;;
64029;SDS011;50277;52.064;4.492;2022-10-29T10:16:15;21.17;;;10.63;;
64029;SDS011;50277;52.064;4.492;2022-10-29T10:18:47;19.65;;;9.80;;
64029;SDS011;50277;52.064;4.492;2022-10-29T10:21:14;18.77;;;9.65;;
64029;SDS011;50277;52.064;4.492;2022-10-29T10:23:49;21.27;;;9.77;;
64029;SDS011;50277;52.064;4.492;2022-10-29T10:31:39;23.90;;;9.57;;
64029;SDS011;50277;52.064;4.492;2022-10-29T10:34:13;18.35;;;9.00;;
64029;SDS011;50277;52.064;4.492;2022-10-29T10:36:49;16.42;;;8.85;;
64029;SDS011;50277;52.064;4.492;2022-10-29T10:44:50;22.07;;;8.93;;
64029;SDS011;50277;52.064;4.492;2022-10-29T10:47:23;19.10;;;9.63;;
64029;SDS011;50277;52.064;4.492;2022-10-29T10:52:17;21.37;;;9.60;;
64029;SDS011;50277;52.064;4.492;2022-10-29T10:54:45;17.00;;;9.43;;
64029;SDS011;50277;52.064;4.492;2022-10-29T10:57:20;20.48;;;8.95;;
64029;SDS011;50277;52.064;4.492;2022-10-29T11:00:06;23.05;;;9.10;;
64029;SDS011;50277;52.064;4.492;2022-10-29T11:02:49;21.15;;;8.45;;
64029;SDS011;50277;52.064;4.492;2022-10-29T11:05:18;14.60;;;8.52;;
64029;SDS011;50277;52.064;4.492;2022-10-29T11:07:51;14.00;;;8.18;;
64029;SDS011;50277;52.064;4.492;2022-10-29T11:10:24;16.15;;;8.55;;
64029;SDS011;50277;52.064;4.492;2022-10-29T11:12:59;16.30;;;7.70;;
64029;SDS011;50277;52.064;4.492;2022-10-29T11:15:36;18.15;;;8.15;;
64029;SDS011;50277;52.064;4.492;2022-10-29T11:18:15;17.08;;;8.35;;
64029;SDS011;50277;52.064;4.492;2022-10-29T11:20:44;18.40;;;7.75;;
64029;SDS011;50277;52.064;4.492;2022-10-29T11:26:07;14.05;;;6.68;;
64029;SDS011;50277;52.064;4.492;2022-10-29T11:28:38;17.40;;;7.43;;
64029;SDS011;50277;52.064;4.492;2022-10-29T11:33:48;23.02;;;7.10;;
64029;SDS011;50277;52.064;4.492;2022-10-29T11:36:37;23.20;;;8.00;;
64029;SDS011;50277;52.064;4.492;2022-10-29T11:44:19;14.88;;;7.28;;
64029;SDS011;50277;52.064;4.492;2022-10-29T11:49:45;16.17;;;6.83;;
64029;SDS011;50277;52.064;4.492;2022-10-29T12:03:49;15.82;;;5.85;;
64029;SDS011;50277;52.064;4.492;2022-10-29T12:06:23;16.98;;;6.22;;
64029;SDS011;50277;52.064;4.492;2022-10-29T12:12:15;17.70;;;6.45;;
64029;SDS011;50277;52.064;4.492;2022-10-29T12:14:47;18.48;;;6.68;;
64029;SDS011;50277;52.064;4.492;2022-10-29T12:22:22;14.00;;;5.80;;
64029;SDS011;50277;52.064;4.492;2022-10-29T12:27:30;25.38;;;6.00;;
64029;SDS011;50277;52.064;4.492;2022-10-29T12:30:03;18.73;;;5.93;;
64029;SDS011;50277;52.064;4.492;2022-10-29T12:32:32;17.23;;;5.53;;
64029;SDS011;50277;52.064;4.492;2022-10-29T12:38:08;16.00;;;6.13;;
64029;SDS011;50277;52.064;4.492;2022-10-29T12:40:42;13.45;;;5.53;;
64029;SDS011;50277;52.064;4.492;2022-10-29T12:43:12;20.27;;;5.80;;
64029;SDS011;50277;52.064;4.492;2022-10-29T12:45:46;13.52;;;5.53;;
64029;SDS011;50277;52.064;4.492;2022-10-29T12:54:38;17.33;;;5.22;;
64029;SDS011;50277;52.064;4.492;2022-10-29T12:59:38;13.93;;;6.18;;
64029;SDS011;50277;52.064;4.492;2022-10-29T13:07:35;15.55;;;5.60;;
64029;SDS011;50277;52.064;4.492;2022-10-29T13:15:44;19.38;;;5.78;;
64029;SDS011;50277;52.064;4.492;2022-10-29T13:20:49;18.58;;;6.22;;
64029;SDS011;50277;52.064;4.492;2022-10-29T13:25:56;15.48;;;6.13;;
64029;SDS011;50277;52.064;4.492;2022-10-29T13:30:48;14.10;;;5.77;;
64029;SDS011;50277;52.064;4.492;2022-10-29T13:35:58;16.42;;;6.43;;
64029;SDS011;50277;52.064;4.492;2022-10-29T13:38:42;16.25;;;6.07;;
64029;SDS011;50277;52.064;4.492;2022-10-29T13:41:17;19.48;;;5.72;;
64029;SDS011;50277;52.064;4.492;2022-10-29T13:43:51;15.00;;;5.40;;
64029;SDS011;50277;52.064;4.492;2022-10-29T13:49:17;21.15;;;6.47;;
64029;SDS011;50277;52.064;4.492;2022-10-29T13:51:47;19.20;;;5.78;;
64029;SDS011;50277;52.064;4.492;2022-10-29T13:54:16;12.88;;;5.88;;
64029;SDS011;50277;52.064;4.492;2022-10-29T13:59:24;14.15;;;5.97;;
64029;SDS011;50277;52.064;4.492;2022-10-29T14:02:00;24.50;;;6.28;;
64029;SDS011;50277;52.064;4.492;2022-10-29T14:04:31;17.50;;;6.72;;
64029;SDS011;50277;52.064;4.492;2022-10-29T14:06:59;25.50;;;7.55;;
64029;SDS011;50277;52.064;4.492;2022-10-29T14:09:43;22.33;;;7.45;;
64029;SDS011;50277;52.064;4.492;2022-10-29T14:12:13;20.48;;;6.50;;
64029;SDS011;50277;52.064;4.492;2022-10-29T14:14:46;14.48;;;6.95;;
64029;SDS011;50277;52.064;4.492;2022-10-29T14:17:17;17.98;;;7.22;;
64029;SDS011;50277;52.064;4.492;2022-10-29T14:19:47;17.08;;;7.05;;
64029;SDS011;50277;52.064;4.492;2022-10-29T14:22:27;20.73;;;6.75;;
64029;SDS011;50277;52.064;4.492;2022-10-29T14:25:01;19.48;;;6.93;;
64029;SDS011;50277;52.064;4.492;2022-10-29T14:27:46;15.55;;;7.32;;
64029;SDS011;50277;52.064;4.492;2022-10-29T14:30:32;14.60;;;6.30;;
64029;SDS011;50277;52.064;4.492;2022-10-29T14:32:57;16.38;;;6.47;;
64029;SDS011;50277;52.064;4.492;2022-10-29T14:35:22;16.83;;;6.75;;
64029;SDS011;50277;52.064;4.492;2022-10-29T14:37:48;14.77;;;5.85;;
64029;SDS011;50277;52.064;4.492;2022-10-29T14:40:18;18.33;;;6.43;;
64029;SDS011;50277;52.064;4.492;2022-10-29T14:42:47;20.95;;;7.30;;
64029;SDS011;50277;52.064;4.492;2022-10-29T14:47:51;17.75;;;6.05;;
64029;SDS011;50277;52.064;4.492;2022-10-29T14:52:45;21.42;;;6.40;;
64029;SDS011;50277;52.064;4.492;2022-10-29T14:55:25;16.70;;;7.38;;
64029;SDS011;50277;52.064;4.492;2022-10-29T14:58:03;14.70;;;6.97;;
64029;SDS011;50277;52.064;4.492;2022-10-29T15:00:31;19.20;;;6.72;;
64029;SDS011;50277;52.064;4.492;2022-10-29T15:02:59;18.55;;;7.43;;
64029;SDS011;50277;52.064;4.492;2022-10-29T15:10:48;20.15;;;6.78;;
64029;SDS011;50277;52.064;4.492;2022-10-29T15:18:18;18.23;;;6.87;;
64029;SDS011;50277;52.064;4.492;2022-10-29T15:20:45;18.45;;;6.85;;
64029;SDS011;50277;52.064;4.492;2022-10-29T15:23:15;27.63;;;7.43;;
64029;SDS011;50277;52.064;4.492;2022-10-29T15:25:48;14.65;;;6.85;;
64029;SDS011;50277;52.064;4.492;2022-10-29T15:28:21;15.93;;;6.80;;
64029;SDS011;50277;52.064;4.492;2022-10-29T15:30:51;16.83;;;6.93;;
64029;SDS011;50277;52.064;4.492;2022-10-29T15:33:19;21.08;;;6.10;;
64029;SDS011;50277;52.064;4.492;2022-10-29T15:35:51;21.00;;;7.35;;
64029;SDS011;50277;52.064;4.492;2022-10-29T15:38:35;18.23;;;7.22;;
64029;SDS011;50277;52.064;4.492;2022-10-29T15:43:54;18.40;;;6.68;;
64029;SDS011;50277;52.064;4.492;2022-10-29T15:46:27;13.52;;;5.93;;
64029;SDS011;50277;52.064;4.492;2022-10-29T15:49:13;14.38;;;5.75;;
64029;SDS011;50277;52.064;4.492;2022-10-29T15:51:39;13.27;;;5.68;;
64029;SDS011;50277;52.064;4.492;2022-10-29T15:54:04;22.30;;;6.10;;
64029;SDS011;50277;52.064;4.492;2022-10-29T15:56:30;23.63;;;7.05;;
64029;SDS011;50277;52.064;4.492;2022-10-29T15:58:55;22.20;;;6.47;;
64029;SDS011;50277;52.064;4.492;2022-10-29T16:01:22;14.75;;;5.82;;
64029;SDS011;50277;52.064;4.492;2022-10-29T16:03:48;17.80;;;6.20;;
64029;SDS011;50277;52.064;4.492;2022-10-29T16:06:13;14.60;;;6.65;;
64029;SDS011;50277;52.064;4.492;2022-10-29T16:08:40;15.32;;;6.22;;
64029;SDS011;50277;52.064;4.492;2022-10-29T16:11:14;15.05;;;5.20;;
64029;SDS011;50277;52.064;4.492;2022-10-29T16:13:41;16.80;;;6.22;;
64029;SDS011;50277;52.064;4.492;2022-10-29T16:16:13;14.98;;;6.32;;
64029;SDS011;50277;52.064;4.492;2022-10-29T16:18:45;18.88;;;6.38;;
64029;SDS011;50277;52.064;4.492;2022-10-29T16:21:13;20.58;;;5.85;;
64029;SDS011;50277;52.064;4.492;2022-10-29T16:23:40;15.38;;;6.72;;
64029;SDS011;50277;52.064;4.492;2022-10-29T16:26:07;22.75;;;7.32;;
64029;SDS011;50277;52.064;4.492;2022-10-29T16:28:43;18.52;;;5.70;;
64029;SDS011;50277;52.064;4.492;2022-10-29T16:31:13;18.80;;;7.30;;
64029;SDS011;50277;52.064;4.492;2022-10-29T16:33:44;23.17;;;7.25;;
64029;SDS011;50277;52.064;4.492;2022-10-29T16:36:10;23.63;;;6.95;;
64029;SDS011;50277;52.064;4.492;2022-10-29T16:38:35;15.75;;;7.07;;
64029;SDS011;50277;52.064;4.492;2022-10-29T16:41:00;14.80;;;6.43;;
64029;SDS011;50277;52.064;4.492;2022-10-29T16:43:25;13.98;;;6.88;;
64029;SDS011;50277;52.064;4.492;2022-10-29T16:45:51;15.40;;;6.30;;
64029;SDS011;50277;52.064;4.492;2022-10-29T16:48:16;23.42;;;6.57;;
64029;SDS011;50277;52.064;4.492;2022-10-29T16:50:41;23.40;;;7.03;;
64029;SDS011;50277;52.064;4.492;2022-10-29T16:53:07;16.75;;;6.75;;
64029;SDS011;50277;52.064;4.492;2022-10-29T16:55:37;16.65;;;7.00;;
64029;SDS011;50277;52.064;4.492;2022-10-29T16:58:14;19.88;;;6.90;;
64029;SDS011;50277;52.064;4.492;2022-10-29T17:00:40;21.35;;;7.15;;
64029;SDS011;50277;52.064;4.492;2022-10-29T17:03:06;15.82;;;7.38;;
64029;SDS011;50277;52.064;4.492;2022-10-29T17:05:35;15.18;;;6.68;;
64029;SDS011;50277;52.064;4.492;2022-10-29T17:08:01;18.60;;;6.82;;
64029;SDS011;50277;52.064;4.492;2022-10-29T17:10:26;21.58;;;6.53;;
64029;SDS011;50277;52.064;4.492;2022-10-29T17:12:52;26.25;;;7.43;;
64029;SDS011;50277;52.064;4.492;2022-10-29T17:15:18;15.57;;;6.45;;
64029;SDS011;50277;52.064;4.492;2022-10-29T17:17:43;16.83;;;5.97;;
64029;SDS011;50277;52.064;4.492;2022-10-29T17:20:09;19.85;;;7.13;;
64029;SDS011;50277;52.064;4.492;2022-10-29T17:22:34;25.00;;;6.88;;
64029;SDS011;50277;52.064;4.492;2022-10-29T17:24:59;19.95;;;7.32;;
64029;SDS011;50277;52.064;4.492;2022-10-29T17:27:25;19.10;;;6.88;;